sensor_id;sensor_type;location;lat;lon;timestamp;pressure;altitude;pressure_sealevel;temperature;humidity
76406;BME280;65234;50.044;19.258;2022-12-18T00:01:15;100229.72;;;-5.08;100.00
76406;BME280;65234;50.044;19.258;2022-12-18T00:03:44;100242.41;;;-5.09;100.00
76406;BME280;65234;50.044;19.258;2022-12-18T00:06:11;100242.69;;;-5.10;100.00
76406;BME280;65234;50.044;19.258;2022-12-18T00:08:37;100247.00;;;-5.09;100.00
76406;BME280;65234;50.044;19.258;2022-12-18T00:11:03;100247.00;;;-5.09;100.00
76406;BME280;65234;50.044;19.258;2022-12-18T00:13:29;100244.31;;;-5.09;100.00
76406;BME280;65234;50.044;19.258;2022-12-18T00:15:55;100245.94;;;-5.08;100.00
76406;BME280;65234;50.044;19.258;2022-12-18T00:18:27;100250.53;;;-5.09;100.00
76406;BME280;65234;50.044;19.258;2022-12-18T00:20:53;100255.09;;;-5.09;100.00
76406;BME280;65234;50.044;19.258;2022-12-18T00:23:19;100251.34;;;-5.08;100.00
76406;BME280;65234;50.044;19.258;2022-12-18T00:25:45;100256.22;;;-5.05;100.00
76406;BME280;65234;50.044;19.258;2022-12-18T00:28:10;100267.00;;;-5.10;100.00
76406;BME280;65234;50.044;19.258;2022-12-18T00:30:36;100268.13;;;-5.01;100.00
76406;BME280;65234;50.044;19.258;2022-12-18T00:33:02;100268.47;;;-4.98;100.00
76406;BME280;65234;50.044;19.258;2022-12-18T00:35:29;100267.63;;;-4.98;100.00
76406;BME280;65234;50.044;19.258;2022-12-18T00:37:55;100274.94;;;-4.99;100.00
76406;BME280;65234;50.044;19.258;2022-12-18T00:40:21;100276.28;;;-4.96;100.00
76406;BME280;65234;50.044;19.258;2022-12-18T00:42:46;100275.75;;;-4.93;100.00
76406;BME280;65234;50.044;19.258;2022-12-18T00:45:12;100274.94;;;-4.99;100.00
76406;BME280;65234;50.044;19.258;2022-12-18T00:47:38;100288.69;;;-5.00;100.00
76406;BME280;65234;50.044;19.258;2022-12-18T00:50:06;100287.09;;;-4.96;100.00
76406;BME280;65234;50.044;19.258;2022-12-18T00:52:33;100295.47;;;-4.98;100.00
76406;BME280;65234;50.044;19.258;2022-12-18T00:54:59;100298.94;;;-5.02;100.00
76406;BME280;65234;50.044;19.258;2022-12-18T00:57:24;100305.97;;;-5.01;100.00
76406;BME280;65234;50.044;19.258;2022-12-18T00:59:50;100297.03;;;-5.07;100.00
76406;BME280;65234;50.044;19.258;2022-12-18T01:02:16;100298.44;;;-4.99;100.00
76406;BME280;65234;50.044;19.258;2022-12-18T01:04:42;100306.53;;;-4.99;100.00
76406;BME280;65234;50.044;19.258;2022-12-18T01:07:08;100311.13;;;-5.00;100.00
76406;BME280;65234;50.044;19.258;2022-12-18T01:09:35;100313.56;;;-4.98;100.00
76406;BME280;65234;50.044;19.258;2022-12-18T01:12:00;100319.75;;;-5.03;100.00
76406;BME280;65234;50.044;19.258;2022-12-18T01:14:27;100316.78;;;-5.01;100.00
76406;BME280;65234;50.044;19.258;2022-12-18T01:16:52;100314.88;;;-5.06;100.00
76406;BME280;65234;50.044;19.258;2022-12-18T01:19:18;100315.97;;;-5.02;100.00
76406;BME280;65234;50.044;19.258;2022-12-18T01:21:44;100324.56;;;-5.05;100.00
76406;BME280;65234;50.044;19.258;2022-12-18T01:24:11;100325.97;;;-5.02;100.00
76406;BME280;65234;50.044;19.258;2022-12-18T01:26:38;100321.41;;;-4.97;100.00
76406;BME280;65234;50.044;19.258;2022-12-18T01:29:13;100321.88;;;-5.05;100.00
76406;BME280;65234;50.044;19.258;2022-12-18T01:31:38;100326.47;;;-5.05;100.00
76406;BME280;65234;50.044;19.258;2022-12-18T01:34:05;100328.63;;;-5.07;100.00
76406;BME280;65234;50.044;19.258;2022-12-18T01:36:32;100324.84;;;-5.06;100.00
76406;BME280;65234;50.044;19.258;2022-12-18T01:38:59;100316.19;;;-5.08;100.00
76406;BME280;65234;50.044;19.258;2022-12-18T01:41:28;100323.47;;;-5.09;100.00
76406;BME280;65234;50.044;19.258;2022-12-18T01:43:56;100321.38;;;-5.02;100.00
76406;BME280;65234;50.044;19.258;2022-12-18T01:46:24;100326.25;;;-4.99;100.00
76406;BME280;65234;50.044;19.258;2022-12-18T01:48:53;100333.50;;;-5.04;100.00
76406;BME280;65234;50.044;19.258;2022-12-18T01:51:20;100324.38;;;-4.98;100.00
76406;BME280;65234;50.044;19.258;2022-12-18T01:53:47;100331.66;;;-4.99;100.00
76406;BME280;65234;50.044;19.258;2022-12-18T01:56:15;100347.06;;;-4.99;100.00
76406;BME280;65234;50.044;19.258;2022-12-18T01:58:48;100339.72;;;-5.04;100.00
76406;BME280;65234;50.044;19.258;2022-12-18T02:01:16;100346.25;;;-5.00;100.00
76406;BME280;65234;50.044;19.258;2022-12-18T02:03:43;100346.25;;;-5.00;100.00
76406;BME280;65234;50.044;19.258;2022-12-18T02:06:13;100347.59;;;-5.02;100.00
76406;BME280;65234;50.044;19.258;2022-12-18T02:08:45;100346.53;;;-4.96;100.00
76406;BME280;65234;50.044;19.258;2022-12-18T02:11:20;100361.22;;;-4.87;100.00
76406;BME280;65234;50.044;19.258;2022-12-18T02:13:56;100367.34;;;-4.97;100.00
76406;BME280;65234;50.044;19.258;2022-12-18T02:16:30;100372.56;;;-4.90;100.00
76406;BME280;65234;50.044;19.258;2022-12-18T02:19:05;100384.72;;;-4.88;100.00
76406;BME280;65234;50.044;19.258;2022-12-18T02:21:40;100379.88;;;-4.86;100.00
76406;BME280;65234;50.044;19.258;2022-12-18T02:24:18;100386.56;;;-4.93;100.00
76406;BME280;65234;50.044;19.258;2022-12-18T02:26:53;100388.78;;;-4.90;100.00
76406;BME280;65234;50.044;19.258;2022-12-18T02:29:24;100388.25;;;-4.87;100.00
76406;BME280;65234;50.044;19.258;2022-12-18T02:31:53;100391.19;;;-4.89;100.00
76406;BME280;65234;50.044;19.258;2022-12-18T02:34:24;100390.66;;;-4.86;100.00
76406;BME280;65234;50.044;19.258;2022-12-18T02:36:53;100382.91;;;-4.77;100.00
76406;BME280;65234;50.044;19.258;2022-12-18T02:39:21;100384.59;;;-4.71;100.00
76406;BME280;65234;50.044;19.258;2022-12-18T02:41:49;100380.22;;;-4.77;100.00
76406;BME280;65234;50.044;19.258;2022-12-18T02:44:17;100385.66;;;-4.72;100.00
76406;BME280;65234;50.044;19.258;2022-12-18T02:46:45;100392.13;;;-4.78;100.00
76406;BME280;65234;50.044;19.258;2022-12-18T02:49:21;100397.53;;;-4.78;100.00
76406;BME280;65234;50.044;19.258;2022-12-18T02:51:52;100410.00;;;-4.72;100.00
76406;BME280;65234;50.044;19.258;2022-12-18T02:54:44;100406.22;;;-4.71;100.00
76406;BME280;65234;50.044;19.258;2022-12-18T02:57:17;100418.09;;;-4.72;100.00
76406;BME280;65234;50.044;19.258;2022-12-18T02:59:56;100413.22;;;-4.75;100.00
76406;BME280;65234;50.044;19.258;2022-12-18T03:02:28;100414.34;;;-4.71;100.00
76406;BME280;65234;50.044;19.258;2022-12-18T03:05:01;100421.16;;;-4.63;100.00
76406;BME280;65234;50.044;19.258;2022-12-18T03:07:36;100430.56;;;-4.71;100.00
76406;BME280;65234;50.044;19.258;2022-12-18T03:10:05;100429.63;;;-4.82;100.00
76406;BME280;65234;50.044;19.258;2022-12-18T03:12:35;100427.50;;;-4.80;100.00
76406;BME280;65234;50.044;19.258;2022-12-18T03:15:09;100427.88;;;-4.66;100.00
76406;BME280;65234;50.044;19.258;2022-12-18T03:17:40;100433.25;;;-4.71;100.00
76406;BME280;65234;50.044;19.258;2022-12-18T03:20:10;100427.19;;;-4.83;100.00
76406;BME280;65234;50.044;19.258;2022-12-18T03:22:38;100419.44;;;-4.74;100.00
76406;BME280;65234;50.044;19.258;2022-12-18T03:25:09;100427.28;;;-4.73;100.00
76406;BME280;65234;50.044;19.258;2022-12-18T03:27:37;100425.34;;;-4.78;100.00
76406;BME280;65234;50.044;19.258;2022-12-18T03:30:10;100433.22;;;-4.76;100.00
76406;BME280;65234;50.044;19.258;2022-12-18T03:32:40;100432.03;;;-4.85;100.00
76406;BME280;65234;50.044;19.258;2022-12-18T03:35:10;100432.91;;;-4.80;100.00
76406;BME280;65234;50.044;19.258;2022-12-18T03:37:38;100424.81;;;-4.80;100.00
76406;BME280;65234;50.044;19.258;2022-12-18T03:40:05;100431.63;;;-4.72;100.00
76406;BME280;65234;50.044;19.258;2022-12-18T03:42:37;100439.72;;;-4.72;100.00
76406;BME280;65234;50.044;19.258;2022-12-18T03:45:13;100443.50;;;-4.73;100.00
76406;BME280;65234;50.044;19.258;2022-12-18T03:47:53;100442.44;;;-4.72;100.00
76406;BME280;65234;50.044;19.258;2022-12-18T03:50:24;100443.25;;;-4.71;100.00
76406;BME280;65234;50.044;19.258;2022-12-18T03:52:58;100449.06;;;-4.85;100.00
76406;BME280;65234;50.044;19.258;2022-12-18T03:55:28;100434.66;;;-4.95;100.00
76406;BME280;65234;50.044;19.258;2022-12-18T03:57:56;100447.13;;;-4.89;100.00
76406;BME280;65234;50.044;19.258;2022-12-18T04:00:25;100451.00;;;-4.80;100.00
76406;BME280;65234;50.044;19.258;2022-12-18T04:02:52;100454.31;;;-4.73;100.00
76406;BME280;65234;50.044;19.258;2022-12-18T04:05:20;100462.19;;;-4.71;100.00
76406;BME280;65234;50.044;19.258;2022-12-18T04:07:47;100471.59;;;-4.74;100.00
76406;BME280;65234;50.044;19.258;2022-12-18T04:10:15;100463.47;;;-4.74;100.00
76406;BME280;65234;50.044;19.258;2022-12-18T04:12:42;100470.28;;;-4.71;100.00
76406;BME280;65234;50.044;19.258;2022-12-18T04:15:09;100464.59;;;-4.75;100.00
76406;BME280;65234;50.044;19.258;2022-12-18T04:17:37;100468.09;;;-4.74;100.00
76406;BME280;65234;50.044;19.258;2022-12-18T04:20:04;100480.22;;;-4.77;100.00
76406;BME280;65234;50.044;19.258;2022-12-18T04:22:29;100486.44;;;-4.77;100.00
76406;BME280;65234;50.044;19.258;2022-12-18T04:24:55;100484.09;;;-4.68;100.00
76406;BME280;65234;50.044;19.258;2022-12-18T04:27:21;100490.56;;;-4.69;100.00
76406;BME280;65234;50.044;19.258;2022-12-18T04:29:47;100490.84;;;-4.70;100.00
76406;BME280;65234;50.044;19.258;2022-12-18T04:32:13;100493.28;;;-4.69;100.00
76406;BME280;65234;50.044;19.258;2022-12-18T04:34:40;100504.41;;;-4.65;100.00
76406;BME280;65234;50.044;19.258;2022-12-18T04:37:06;100497.03;;;-4.70;100.00
76406;BME280;65234;50.044;19.258;2022-12-18T04:39:31;100500.31;;;-4.68;100.00
76406;BME280;65234;50.044;19.258;2022-12-18T04:41:57;100500.53;;;-4.74;100.00
76406;BME280;65234;50.044;19.258;2022-12-18T04:44:23;100508.50;;;-4.63;100.00
76406;BME280;65234;50.044;19.258;2022-12-18T04:46:49;100507.84;;;-4.70;100.00
76406;BME280;65234;50.044;19.258;2022-12-18T04:49:15;100510.56;;;-4.70;100.00
76406;BME280;65234;50.044;19.258;2022-12-18T04:51:42;100512.78;;;-4.67;100.00
76406;BME280;65234;50.044;19.258;2022-12-18T04:54:08;100510.31;;;-4.68;100.00
76406;BME280;65234;50.044;19.258;2022-12-18T04:56:33;100511.66;;;-4.71;100.00
76406;BME280;65234;50.044;19.258;2022-12-18T04:58:59;100518.44;;;-4.68;100.00
76406;BME280;65234;50.044;19.258;2022-12-18T05:01:25;100515.44;;;-4.72;100.00
76406;BME280;65234;50.044;19.258;2022-12-18T05:03:51;100526.44;;;-4.79;100.00
76406;BME280;65234;50.044;19.258;2022-12-18T05:06:17;100522.47;;;-4.71;100.00
76406;BME280;65234;50.044;19.258;2022-12-18T05:08:44;100531.13;;;-4.69;100.00
76406;BME280;65234;50.044;19.258;2022-12-18T05:11:12;100543.28;;;-4.71;100.00
76406;BME280;65234;50.044;19.258;2022-12-18T05:13:38;100547.88;;;-4.72;100.00
76406;BME280;65234;50.044;19.258;2022-12-18T05:16:05;100539.50;;;-4.70;100.00
76406;BME280;65234;50.044;19.258;2022-12-18T05:18:31;100537.06;;;-4.72;100.00
76406;BME280;65234;50.044;19.258;2022-12-18T05:20:57;100543.53;;;-4.73;100.00
76406;BME280;65234;50.044;19.258;2022-12-18T05:23:24;100545.72;;;-4.70;100.00
76406;BME280;65234;50.044;19.258;2022-12-18T05:25:52;100544.28;;;-4.78;100.00
76406;BME280;65234;50.044;19.258;2022-12-18T05:28:20;100552.16;;;-4.76;100.00
76406;BME280;65234;50.044;19.258;2022-12-18T05:30:48;100553.50;;;-4.73;100.00
76406;BME280;65234;50.044;19.258;2022-12-18T05:33:14;100552.16;;;-4.76;100.00
76406;BME280;65234;50.044;19.258;2022-12-18T05:35:39;100544.09;;;-4.71;100.00
76406;BME280;65234;50.044;19.258;2022-12-18T05:38:05;100548.09;;;-4.73;100.00
76406;BME280;65234;50.044;19.258;2022-12-18T05:40:31;100553.28;;;-4.72;100.00
76406;BME280;65234;50.044;19.258;2022-12-18T05:42:58;100559.75;;;-4.73;100.00
76406;BME280;65234;50.044;19.258;2022-12-18T05:45:24;100561.06;;;-4.76;100.00
76406;BME280;65234;50.044;19.258;2022-12-18T05:47:50;100560.81;;;-4.74;100.00
76406;BME280;65234;50.044;19.258;2022-12-18T05:50:15;100565.22;;;-4.68;100.00
76406;BME280;65234;50.044;19.258;2022-12-18T05:52:41;100577.97;;;-4.85;100.00
76406;BME280;65234;50.044;19.258;2022-12-18T05:55:07;100573.31;;;-4.90;100.00
76406;BME280;65234;50.044;19.258;2022-12-18T05:57:33;100572.53;;;-4.90;100.00
76406;BME280;65234;50.044;19.258;2022-12-18T06:00:00;100574.72;;;-4.87;100.00
76406;BME280;65234;50.044;19.258;2022-12-18T06:02:26;100577.38;;;-4.92;100.00
76406;BME280;65234;50.044;19.258;2022-12-18T06:04:52;100578.56;;;-4.83;100.00
76406;BME280;65234;50.044;19.258;2022-12-18T06:07:18;100587.41;;;-4.88;100.00
76406;BME280;65234;50.044;19.258;2022-12-18T06:09:43;100587.22;;;-4.81;100.00
76406;BME280;65234;50.044;19.258;2022-12-18T06:12:09;100585.22;;;-4.91;100.00
76406;BME280;65234;50.044;19.258;2022-12-18T06:14:35;100584.22;;;-4.85;100.00
76406;BME280;65234;50.044;19.258;2022-12-18T06:17:02;100586.22;;;-4.75;100.00
76406;BME280;65234;50.044;19.258;2022-12-18T06:19:28;100588.34;;;-4.77;100.00
76406;BME280;65234;50.044;19.258;2022-12-18T06:21:54;100595.41;;;-4.76;100.00
76406;BME280;65234;50.044;19.258;2022-12-18T06:24:19;100594.34;;;-4.75;100.00
76406;BME280;65234;50.044;19.258;2022-12-18T06:26:45;100596.53;;;-4.72;100.00
76406;BME280;65234;50.044;19.258;2022-12-18T06:29:11;100605.19;;;-4.70;100.00
76406;BME280;65234;50.044;19.258;2022-12-18T06:31:37;100609.59;;;-4.64;100.00
76406;BME280;65234;50.044;19.258;2022-12-18T06:34:04;100613.66;;;-4.61;100.00
76406;BME280;65234;50.044;19.258;2022-12-18T06:36:30;100612.06;;;-4.62;100.00
76406;BME280;65234;50.044;19.258;2022-12-18T06:38:57;100608.09;;;-4.55;100.00
76406;BME280;65234;50.044;19.258;2022-12-18T06:41:23;100616.75;;;-4.53;100.00
76406;BME280;65234;50.044;19.258;2022-12-18T06:43:49;100614.63;;;-4.51;100.00
76406;BME280;65234;50.044;19.258;2022-12-18T06:46:15;100617.50;;;-4.57;100.00
76406;BME280;65234;50.044;19.258;2022-12-18T06:48:41;100624.50;;;-4.61;100.00
76406;BME280;65234;50.044;19.258;2022-12-18T06:51:08;100622.66;;;-4.56;100.00
76406;BME280;65234;50.044;19.258;2022-12-18T06:53:34;100635.13;;;-4.55;100.00
76406;BME280;65234;50.044;19.258;2022-12-18T06:56:00;100642.66;;;-4.57;100.00
76406;BME280;65234;50.044;19.258;2022-12-18T06:58:27;100642.66;;;-4.57;100.00
76406;BME280;65234;50.044;19.258;2022-12-18T07:00:52;100638.31;;;-4.58;100.00
76406;BME280;65234;50.044;19.258;2022-12-18T07:03:18;100643.78;;;-4.53;100.00
76406;BME280;65234;50.044;19.258;2022-12-18T07:05:44;100653.78;;;-4.53;100.00
76406;BME280;65234;50.044;19.258;2022-12-18T07:08:11;100649.72;;;-4.56;100.00
76406;BME280;65234;50.044;19.258;2022-12-18T07:10:41;100657.31;;;-4.53;100.00
76406;BME280;65234;50.044;19.258;2022-12-18T07:13:06;100659.72;;;-4.56;100.00
76406;BME280;65234;50.044;19.258;2022-12-18T07:15:32;100668.56;;;-4.61;100.00
76406;BME280;65234;50.044;19.258;2022-12-18T07:17:58;100662.09;;;-4.60;100.00
76406;BME280;65234;50.044;19.258;2022-12-18T07:20:24;100660.09;;;-4.48;100.00
76406;BME280;65234;50.044;19.258;2022-12-18T07:22:50;100670.22;;;-4.60;100.00
76406;BME280;65234;50.044;19.258;2022-12-18T07:25:17;100677.56;;;-4.55;100.00
76406;BME280;65234;50.044;19.258;2022-12-18T07:27:42;100670.84;;;-4.53;100.00
76406;BME280;65234;50.044;19.258;2022-12-18T07:30:10;100681.44;;;-4.46;100.00
76406;BME280;65234;50.044;19.258;2022-12-18T07:32:35;100685.50;;;-4.49;100.00
76406;BME280;65234;50.044;19.258;2022-12-18T07:35:01;100697.13;;;-4.48;100.00
76406;BME280;65234;50.044;19.258;2022-12-18T07:37:27;100698.38;;;-4.56;100.00
76406;BME280;65234;50.044;19.258;2022-12-18T07:39:53;100699.97;;;-4.60;100.00
76406;BME280;65234;50.044;19.258;2022-12-18T07:42:20;100701.66;;;-4.54;100.00
76406;BME280;65234;50.044;19.258;2022-12-18T07:44:46;100701.72;;;-4.49;100.00
76406;BME280;65234;50.044;19.258;2022-12-18T07:47:11;100691.41;;;-4.52;100.00
76406;BME280;65234;50.044;19.258;2022-12-18T07:49:37;100697.75;;;-4.63;100.00
76406;BME280;65234;50.044;19.258;2022-12-18T07:52:04;100700.28;;;-4.56;100.00
76406;BME280;65234;50.044;19.258;2022-12-18T07:54:30;100700.72;;;-4.43;100.00
76406;BME280;65234;50.044;19.258;2022-12-18T07:56:55;100692.34;;;-4.41;100.00
76406;BME280;65234;50.044;19.258;2022-12-18T07:59:23;100697.56;;;-4.35;100.00
76406;BME280;65234;50.044;19.258;2022-12-18T08:01:48;100702.50;;;-4.27;100.00
76406;BME280;65234;50.044;19.258;2022-12-18T08:04:14;100703.16;;;-4.19;100.00
76406;BME280;65234;50.044;19.258;2022-12-18T08:06:40;100696.72;;;-4.13;100.00
76406;BME280;65234;50.044;19.258;2022-12-18T08:09:06;100699.47;;;-4.08;100.00
76406;BME280;65234;50.044;19.258;2022-12-18T08:11:31;100696.31;;;-4.00;100.00
76406;BME280;65234;50.044;19.258;2022-12-18T08:13:57;100692.13;;;-4.13;100.00
76406;BME280;65234;50.044;19.258;2022-12-18T08:16:24;100691.88;;;-4.11;100.00
76406;BME280;65234;50.044;19.258;2022-12-18T08:18:51;100698.75;;;-3.99;100.00
76406;BME280;65234;50.044;19.258;2022-12-18T08:21:19;100698.00;;;-3.94;100.00
76406;BME280;65234;50.044;19.258;2022-12-18T08:23:45;100700.69;;;-3.94;100.00
76406;BME280;65234;50.044;19.258;2022-12-18T08:26:11;100703.31;;;-4.04;100.00
76406;BME280;65234;50.044;19.258;2022-12-18T08:28:38;100716.03;;;-4.05;100.00
76406;BME280;65234;50.044;19.258;2022-12-18T08:31:04;100711.66;;;-4.11;100.00
76406;BME280;65234;50.044;19.258;2022-12-18T08:33:32;100709.84;;;-4.00;100.00
76406;BME280;65234;50.044;19.258;2022-12-18T08:35:58;100711.22;;;-3.98;100.00
76406;BME280;65234;50.044;19.258;2022-12-18T08:38:24;100718.22;;;-4.02;100.00
76406;BME280;65234;50.044;19.258;2022-12-18T08:40:49;100720.31;;;-4.09;100.00
76406;BME280;65234;50.044;19.258;2022-12-18T08:43:15;100728.28;;;-3.97;100.00
76406;BME280;65234;50.044;19.258;2022-12-18T08:45:41;100721.75;;;-4.01;100.00
76406;BME280;65234;50.044;19.258;2022-12-18T08:48:07;100734.50;;;-4.23;100.00
76406;BME280;65234;50.044;19.258;2022-12-18T08:50:34;100736.75;;;-4.15;100.00
76406;BME280;65234;50.044;19.258;2022-12-18T08:53:00;100739.69;;;-4.17;100.00
76406;BME280;65234;50.044;19.258;2022-12-18T08:55:26;100736.63;;;-4.04;100.00
76406;BME280;65234;50.044;19.258;2022-12-18T08:57:52;100738.06;;;-3.96;100.00
76406;BME280;65234;50.044;19.258;2022-12-18T09:00:18;100744.44;;;-4.07;100.00
76406;BME280;65234;50.044;19.258;2022-12-18T09:02:44;100741.97;;;-4.09;100.00
76406;BME280;65234;50.044;19.258;2022-12-18T09:05:09;100747.13;;;-4.07;100.00
76406;BME280;65234;50.044;19.258;2022-12-18T09:07:37;100751.72;;;-4.08;100.00
76406;BME280;65234;50.044;19.258;2022-12-18T09:10:03;100750.97;;;-4.03;100.00
76406;BME280;65234;50.044;19.258;2022-12-18T09:12:29;100750.31;;;-4.10;100.00
76406;BME280;65234;50.044;19.258;2022-12-18T09:14:54;100751.75;;;-4.03;100.00
76406;BME280;65234;50.044;19.258;2022-12-18T09:17:20;100760.63;;;-3.86;100.00
76406;BME280;65234;50.044;19.258;2022-12-18T09:19:46;100756.03;;;-3.85;100.00
76406;BME280;65234;50.044;19.258;2022-12-18T09:22:12;100762.31;;;-3.79;100.00
76406;BME280;65234;50.044;19.258;2022-12-18T09:24:39;100755.44;;;-3.87;100.00
76406;BME280;65234;50.044;19.258;2022-12-18T09:27:05;100764.66;;;-3.88;100.00
76406;BME280;65234;50.044;19.258;2022-12-18T09:29:30;100770.09;;;-3.88;100.00
76406;BME280;65234;50.044;19.258;2022-12-18T09:31:56;100773.72;;;-3.77;100.00
76406;BME280;65234;50.044;19.258;2022-12-18T09:34:22;100770.44;;;-3.79;100.00
76406;BME280;65234;50.044;19.258;2022-12-18T09:36:48;100757.69;;;-3.79;100.00
76406;BME280;65234;50.044;19.258;2022-12-18T09:39:14;100768.53;;;-3.79;100.00
76406;BME280;65234;50.044;19.258;2022-12-18T09:41:46;100764.69;;;-3.83;100.00
76406;BME280;65234;50.044;19.258;2022-12-18T09:44:22;100768.88;;;-3.75;100.00
76406;BME280;65234;50.044;19.258;2022-12-18T09:46:53;100766.91;;;-3.80;100.00
76406;BME280;65234;50.044;19.258;2022-12-18T09:49:23;100779.78;;;-3.92;100.00
76406;BME280;65234;50.044;19.258;2022-12-18T09:51:53;100775.50;;;-4.10;100.00
76406;BME280;65234;50.044;19.258;2022-12-18T09:54:25;100780.81;;;-4.20;100.00
76406;BME280;65234;50.044;19.258;2022-12-18T09:56:53;100789.09;;;-4.05;100.00
76406;BME280;65234;50.044;19.258;2022-12-18T09:59:24;100783.00;;;-3.95;100.00
76406;BME280;65234;50.044;19.258;2022-12-18T10:01:51;100774.53;;;-3.99;100.00
76406;BME280;65234;50.044;19.258;2022-12-18T10:04:16;100772.72;;;-3.93;100.00
76406;BME280;65234;50.044;19.258;2022-12-18T10:06:47;100784.69;;;-3.89;100.00
76406;BME280;65234;50.044;19.258;2022-12-18T10:09:22;100782.22;;;-3.91;100.00
76406;BME280;65234;50.044;19.258;2022-12-18T10:11:56;100777.63;;;-3.90;100.00
76406;BME280;65234;50.044;19.258;2022-12-18T10:14:29;100772.28;;;-3.85;100.00
76406;BME280;65234;50.044;19.258;2022-12-18T10:17:02;100776.50;;;-3.94;100.00
76406;BME280;65234;50.044;19.258;2022-12-18T10:19:38;100762.28;;;-4.06;100.00
76406;BME280;65234;50.044;19.258;2022-12-18T10:22:13;100754.03;;;-3.95;100.00
76406;BME280;65234;50.044;19.258;2022-12-18T10:24:47;100758.16;;;-3.87;100.00
76406;BME280;65234;50.044;19.258;2022-12-18T10:27:18;100752.13;;;-3.94;100.00
76406;BME280;65234;50.044;19.258;2022-12-18T10:29:44;100758.81;;;-3.80;100.00
76406;BME280;65234;50.044;19.258;2022-12-18T10:32:14;100764.75;;;-3.78;100.00
76406;BME280;65234;50.044;19.258;2022-12-18T10:34:40;100769.47;;;-3.68;100.00
76406;BME280;65234;50.044;19.258;2022-12-18T10:37:13;100757.44;;;-3.56;100.00
76406;BME280;65234;50.044;19.258;2022-12-18T10:39:41;100751.50;;;-3.53;100.00
76406;BME280;65234;50.044;19.258;2022-12-18T10:42:10;100743.91;;;-3.51;100.00
76406;BME280;65234;50.044;19.258;2022-12-18T10:44:37;100747.22;;;-3.44;100.00
76406;BME280;65234;50.044;19.258;2022-12-18T10:47:05;100747.38;;;-3.28;100.00
76406;BME280;65234;50.044;19.258;2022-12-18T10:49:33;100738.47;;;-3.24;100.00
76406;BME280;65234;50.044;19.258;2022-12-18T10:52:06;100733.84;;;-3.23;100.00
76406;BME280;65234;50.044;19.258;2022-12-18T10:54:34;100737.19;;;-3.11;100.00
76406;BME280;65234;50.044;19.258;2022-12-18T10:57:15;100733.97;;;-3.08;100.00
76406;BME280;65234;50.044;19.258;2022-12-18T10:59:51;100727.94;;;-3.20;100.00
76406;BME280;65234;50.044;19.258;2022-12-18T11:02:26;100715.16;;;-3.25;100.00
76406;BME280;65234;50.044;19.258;2022-12-18T11:04:52;100724.13;;;-3.19;100.00
76406;BME280;65234;50.044;19.258;2022-12-18T11:07:18;100724.41;;;-3.21;100.00
76406;BME280;65234;50.044;19.258;2022-12-18T11:09:59;100723.81;;;-3.28;100.00
76406;BME280;65234;50.044;19.258;2022-12-18T11:12:28;100722.97;;;-3.28;100.00
76406;BME280;65234;50.044;19.258;2022-12-18T11:14:55;100715.41;;;-3.26;100.00
76406;BME280;65234;50.044;19.258;2022-12-18T11:17:24;100712.78;;;-3.16;100.00
76406;BME280;65234;50.044;19.258;2022-12-18T11:19:55;100717.66;;;-3.13;100.00
76406;BME280;65234;50.044;19.258;2022-12-18T11:22:23;100710.06;;;-3.16;100.00
76406;BME280;65234;50.044;19.258;2022-12-18T11:24:53;100710.34;;;-3.13;100.00
76406;BME280;65234;50.044;19.258;2022-12-18T11:27:21;100707.38;;;-3.11;100.00
76406;BME280;65234;50.044;19.258;2022-12-18T11:29:49;100701.88;;;-3.21;100.00
76406;BME280;65234;50.044;19.258;2022-12-18T11:32:32;100710.03;;;-3.21;100.00
76406;BME280;65234;50.044;19.258;2022-12-18T11:35:14;100705.13;;;-3.24;100.00
76406;BME280;65234;50.044;19.258;2022-12-18T11:37:43;100710.25;;;-3.28;100.00
76406;BME280;65234;50.044;19.258;2022-12-18T11:40:14;100712.91;;;-3.33;100.00
76406;BME280;65234;50.044;19.258;2022-12-18T11:42:48;100709.91;;;-3.37;100.00
76406;BME280;65234;50.044;19.258;2022-12-18T11:45:27;100716.16;;;-3.36;100.00
76406;BME280;65234;50.044;19.258;2022-12-18T11:47:58;100707.78;;;-3.29;100.00
76406;BME280;65234;50.044;19.258;2022-12-18T11:50:31;100705.31;;;-3.31;100.00
76406;BME280;65234;50.044;19.258;2022-12-18T11:52:59;100716.44;;;-3.33;100.00
76406;BME280;65234;50.044;19.258;2022-12-18T11:55:32;100715.09;;;-3.30;100.00
76406;BME280;65234;50.044;19.258;2022-12-18T11:58:05;100712.09;;;-3.34;100.00
76406;BME280;65234;50.044;19.258;2022-12-18T12:00:38;100721.81;;;-3.38;100.00
76406;BME280;65234;50.044;19.258;2022-12-18T12:03:19;100724.00;;;-3.35;100.00
76406;BME280;65234;50.044;19.258;2022-12-18T12:05:59;100722.94;;;-3.34;100.00
76406;BME280;65234;50.044;19.258;2022-12-18T12:08:38;100722.69;;;-3.27;100.00
76406;BME280;65234;50.044;19.258;2022-12-18T12:11:13;100727.31;;;-3.27;100.00
76406;BME280;65234;50.044;19.258;2022-12-18T12:13:49;100731.06;;;-3.34;100.00
76406;BME280;65234;50.044;19.258;2022-12-18T12:16:23;100730.50;;;-3.36;100.00
76406;BME280;65234;50.044;19.258;2022-12-18T12:19:02;100726.72;;;-3.35;100.00
76406;BME280;65234;50.044;19.258;2022-12-18T12:21:36;100729.41;;;-3.35;100.00
76406;BME280;65234;50.044;19.258;2022-12-18T12:24:18;100723.22;;;-3.30;100.00
76406;BME280;65234;50.044;19.258;2022-12-18T12:26:54;100714.31;;;-3.25;100.00
76406;BME280;65234;50.044;19.258;2022-12-18T12:29:37;100728.16;;;-3.22;100.00
76406;BME280;65234;50.044;19.258;2022-12-18T12:32:21;100739.19;;;-3.34;100.00
76406;BME280;65234;50.044;19.258;2022-12-18T12:34:56;100731.28;;;-3.40;100.00
76406;BME280;65234;50.044;19.258;2022-12-18T12:37:29;100737.47;;;-3.45;100.00